createdAt,value
2018-10-09T00:03:07.701Z,12.91
2018-10-09T00:07:12.730Z,12.93
2018-10-09T00:11:17.768Z,12.96
2018-10-09T00:15:22.837Z,12.92
2018-10-09T00:19:27.872Z,12.93
2018-10-09T00:23:32.925Z,12.85
2018-10-09T00:27:37.964Z,12.83
2018-10-09T00:31:43.007Z,12.82
2018-10-09T00:35:48.049Z,12.81
2018-10-09T00:39:53.811Z,12.78
2018-10-09T00:43:58.852Z,12.78
2018-10-09T00:48:03.894Z,12.77
2018-10-09T00:52:09.085Z,12.67
2018-10-09T00:56:14.138Z,12.54
2018-10-09T01:00:19.173Z,12.51
2018-10-09T01:04:24.208Z,12.46
2018-10-09T01:08:29.246Z,12.48
2018-10-09T01:12:34.293Z,12.43
2018-10-09T01:16:39.337Z,12.36
2018-10-09T01:20:44.386Z,12.33
2018-10-09T01:24:49.416Z,12.32
2018-10-09T01:28:54.400Z,12.30
2018-10-09T01:33:00.332Z,12.31
2018-10-09T01:37:05.376Z,12.35
2018-10-09T01:41:10.386Z,12.34
2018-10-09T01:45:15.419Z,12.34
2018-10-09T01:49:20.434Z,12.37
2018-10-09T01:53:25.462Z,12.26
2018-10-09T01:57:30.488Z,12.24
2018-10-09T02:01:35.508Z,12.17
2018-10-09T02:05:40.536Z,12.19
2018-10-09T02:09:45.564Z,12.10
2018-10-09T02:13:50.589Z,12.08
2018-10-09T02:17:55.611Z,12.04
2018-10-09T02:22:00.612Z,12.09
2018-10-09T02:26:05.657Z,12.00
2018-10-09T02:30:10.933Z,12.07
2018-10-09T02:34:15.974Z,12.05
2018-10-09T02:38:20.980Z,11.90
2018-10-09T02:42:25.994Z,11.76
2018-10-09T02:46:31.049Z,11.67
2018-10-09T02:50:36.050Z,11.70
2018-10-09T02:54:41.047Z,11.56
2018-10-09T02:58:46.049Z,11.57
2018-10-09T03:02:51.056Z,11.53
2018-10-09T03:06:56.060Z,11.60
2018-10-09T03:11:01.231Z,11.59
2018-10-09T03:15:06.788Z,11.44
2018-10-09T03:19:11.819Z,11.40
2018-10-09T03:23:16.828Z,11.42
2018-10-09T03:27:21.842Z,11.38
2018-10-09T03:31:26.824Z,11.37
2018-10-09T03:35:31.829Z,11.39
2018-10-09T03:39:36.863Z,11.33
2018-10-09T03:43:41.902Z,11.29
2018-10-09T03:47:46.924Z,11.11
2018-10-09T03:51:51.941Z,11.17
2018-10-09T03:55:56.949Z,11.10
2018-10-09T04:00:01.953Z,11.16
2018-10-09T04:04:06.996Z,11.15
2018-10-09T04:08:12.027Z,11.17
2018-10-09T04:12:17.061Z,11.11
2018-10-09T04:16:22.080Z,11.17
2018-10-09T04:20:27.125Z,11.11
2018-10-09T04:24:32.157Z,11.20
2018-10-09T04:28:37.189Z,11.18
2018-10-09T04:32:42.232Z,11.09
2018-10-09T04:36:47.260Z,11.09
2018-10-09T04:40:52.301Z,11.01
2018-10-09T04:44:57.344Z,10.85
2018-10-09T04:49:02.377Z,10.99
2018-10-09T04:53:07.545Z,11.02
2018-10-09T04:57:12.525Z,11.01
2018-10-09T05:01:17.544Z,11.01
2018-10-09T05:05:22.623Z,10.98
2018-10-09T05:09:27.718Z,11.01
2018-10-09T05:13:32.749Z,10.88
2018-10-09T05:17:38.241Z,11.04
2018-10-09T05:21:43.296Z,11.39
2018-10-09T05:25:48.372Z,11.70
2018-10-09T05:29:53.637Z,11.58
2018-10-09T05:33:58.637Z,11.96
2018-10-09T05:38:03.670Z,11.83
2018-10-09T05:42:08.715Z,11.20
2018-10-09T05:46:13.753Z,11.06
2018-10-09T05:50:18.823Z,11.20
2018-10-09T05:54:23.868Z,11.04
2018-10-09T05:58:28.946Z,11.07
2018-10-09T06:02:33.976Z,10.74
2018-10-09T06:06:39.025Z,10.63
2018-10-09T06:10:44.083Z,10.58
2018-10-09T06:14:49.123Z,10.67
2018-10-09T06:18:54.246Z,10.66
2018-10-09T06:22:59.271Z,10.62
2018-10-09T06:27:04.289Z,10.57
2018-10-09T06:31:09.626Z,10.80
2018-10-09T06:35:14.637Z,10.88
2018-10-09T06:39:19.649Z,10.94
2018-10-09T06:43:24.703Z,10.84
2018-10-09T06:47:29.723Z,10.95
2018-10-09T06:51:34.718Z,11.00
2018-10-09T06:55:39.760Z,11.21
2018-10-09T06:59:44.789Z,11.09
2018-10-09T07:03:49.806Z,11.23
2018-10-09T07:07:54.833Z,11.26
2018-10-09T07:11:59.846Z,11.37
2018-10-09T07:16:04.941Z,11.31
2018-10-09T07:20:10.024Z,11.54
2018-10-09T07:24:15.077Z,11.68
2018-10-09T07:28:20.255Z,11.25
2018-10-09T07:32:25.253Z,11.40
2018-10-09T07:36:30.362Z,11.71
2018-10-09T07:40:35.349Z,11.72
2018-10-09T07:44:40.373Z,11.82
2018-10-09T07:48:45.381Z,11.70
2018-10-09T07:52:50.826Z,11.68
2018-10-09T07:56:55.844Z,11.85
2018-10-09T08:01:00.860Z,11.61
2018-10-09T08:05:05.875Z,11.83
2018-10-09T08:09:12.013Z,11.69
2018-10-09T08:13:17.058Z,11.94
2018-10-09T08:17:22.081Z,12.28
2018-10-09T08:21:27.099Z,12.64
2018-10-09T08:25:32.163Z,12.63
2018-10-09T08:29:37.225Z,12.83
2018-10-09T08:33:42.275Z,13.25
2018-10-09T08:37:47.350Z,13.11
2018-10-09T08:41:52.397Z,13.18
2018-10-09T08:45:57.506Z,13.60
2018-10-09T08:50:02.562Z,13.83
2018-10-09T08:54:07.627Z,13.57
2018-10-09T08:58:12.653Z,13.83
2018-10-09T09:02:17.712Z,13.92
2018-10-09T09:06:22.780Z,13.75
2018-10-09T09:10:27.821Z,14.01
2018-10-09T09:14:32.870Z,14.05
2018-10-09T09:18:37.943Z,14.28
2018-10-09T09:22:43.053Z,14.37
2018-10-09T09:26:48.177Z,14.49
2018-10-09T09:30:53.169Z,14.60
2018-10-09T09:34:58.228Z,14.73
2018-10-09T09:39:03.446Z,14.58
2018-10-09T09:43:08.466Z,14.83
2018-10-09T09:47:13.497Z,15.34
2018-10-09T09:51:18.553Z,15.64
2018-10-09T09:55:23.592Z,15.51
2018-10-09T09:59:28.657Z,15.68
2018-10-09T10:03:33.710Z,15.85
2018-10-09T10:07:38.748Z,16.24
2018-10-09T10:11:43.799Z,15.96
2018-10-09T10:15:48.850Z,16.34
2018-10-09T10:19:53.922Z,16.48
2018-10-09T10:23:58.977Z,16.88
2018-10-09T10:28:04.046Z,16.55
2018-10-09T10:32:09.097Z,16.73
2018-10-09T10:36:14.109Z,16.78
2018-10-09T10:40:19.172Z,17.19
2018-10-09T10:44:24.211Z,16.96
2018-10-09T10:48:29.249Z,17.13
2018-10-09T10:52:34.323Z,17.16
2018-10-09T10:56:40.263Z,17.66
2018-10-09T11:00:45.369Z,17.97
2018-10-09T11:04:50.428Z,18.19
2018-10-09T11:08:55.954Z,17.97
2018-10-09T11:13:01.037Z,18.81
2018-10-09T11:17:06.137Z,18.60
2018-10-09T11:21:11.216Z,18.79
2018-10-09T11:25:16.265Z,19.08
2018-10-09T11:29:21.317Z,18.58
2018-10-09T11:33:26.412Z,19.50
2018-10-09T11:37:31.469Z,19.26
2018-10-09T11:41:36.690Z,19.02
2018-10-09T11:45:42.293Z,19.44
2018-10-09T11:49:47.377Z,19.69
2018-10-09T11:53:52.440Z,20.28
2018-10-09T11:57:57.490Z,20.09
2018-10-09T12:02:02.529Z,19.97
2018-10-09T12:06:07.603Z,21.05
2018-10-09T12:10:12.665Z,21.04
2018-10-09T12:14:17.989Z,21.62
2018-10-09T12:18:23.032Z,21.72
2018-10-09T12:22:28.093Z,22.22
2018-10-09T12:26:33.261Z,22.19
2018-10-09T12:30:38.296Z,22.95
2018-10-09T12:34:43.333Z,22.95
2018-10-09T12:38:48.404Z,22.75
2018-10-09T12:42:53.435Z,22.33
2018-10-09T12:46:58.453Z,22.79
2018-10-09T12:51:03.452Z,23.44
2018-10-09T12:55:08.973Z,23.36
2018-10-09T12:59:14.037Z,23.90
2018-10-09T13:03:19.154Z,24.14
2018-10-09T13:07:24.153Z,23.71
2018-10-09T13:11:30.384Z,23.99
2018-10-09T13:15:35.420Z,24.12
2018-10-09T13:19:40.446Z,23.96
2018-10-09T13:23:45.437Z,24.29
2018-10-09T13:27:50.473Z,24.77
2018-10-09T13:31:55.498Z,24.82
2018-10-09T13:36:00.517Z,25.04
2018-10-09T13:40:05.616Z,24.70
2018-10-09T13:44:10.788Z,24.69
2018-10-09T13:48:15.693Z,24.01
2018-10-09T13:52:20.757Z,24.30
2018-10-09T13:56:25.809Z,23.22
2018-10-09T14:00:31.034Z,24.14
2018-10-09T14:04:36.086Z,23.80
2018-10-09T14:08:41.205Z,23.36
2018-10-09T14:12:46.281Z,23.18
2018-10-09T14:16:51.333Z,22.12
2018-10-09T14:20:56.349Z,21.76
2018-10-09T14:25:01.400Z,22.31
2018-10-09T14:29:06.510Z,22.25
2018-10-09T14:33:11.593Z,21.70
2018-10-09T14:37:16.630Z,21.40
2018-10-09T14:41:21.662Z,21.38
2018-10-09T14:45:26.696Z,21.52
2018-10-09T14:49:31.733Z,21.28
2018-10-09T14:53:36.758Z,21.21
2018-10-09T14:57:41.775Z,21.54
2018-10-09T15:01:46.844Z,21.37
2018-10-09T15:05:52.081Z,21.59
2018-10-09T15:09:57.138Z,21.49
2018-10-09T15:14:02.232Z,21.61
2018-10-09T15:18:07.383Z,21.47
2018-10-09T15:22:12.486Z,21.29
2018-10-09T15:26:17.616Z,21.25
2018-10-09T15:30:22.636Z,21.24
2018-10-09T15:34:27.677Z,21.16
2018-10-09T15:38:32.834Z,21.10
2018-10-09T15:42:39.055Z,21.08
2018-10-09T15:46:45.537Z,21.03
2018-10-09T15:50:52.546Z,20.95
2018-10-09T15:54:59.512Z,20.81
2018-10-09T15:59:09.570Z,20.83
2018-10-09T16:03:16.645Z,20.81
2018-10-09T16:07:23.691Z,20.74
2018-10-09T16:11:30.259Z,20.63
2018-10-09T16:15:36.717Z,20.58
2018-10-09T16:19:43.327Z,20.36
2018-10-09T16:23:48.393Z,20.29
2018-10-09T16:27:53.457Z,20.18
2018-10-09T16:31:58.526Z,20.08
2018-10-09T16:36:03.567Z,20.00
2018-10-09T16:40:11.295Z,19.92
2018-10-09T16:44:19.154Z,19.73
2018-10-09T16:48:24.466Z,19.64
2018-10-09T16:52:29.558Z,19.46
2018-10-09T16:56:34.925Z,19.37
2018-10-09T17:00:40.029Z,19.33
2018-10-09T17:04:45.089Z,19.21
2018-10-09T17:08:51.212Z,19.14
2018-10-09T17:12:56.244Z,19.03
2018-10-09T17:17:01.330Z,18.88
2018-10-09T17:21:06.493Z,18.82
2018-10-09T17:25:11.628Z,18.75
2018-10-09T17:29:16.731Z,18.67
2018-10-09T17:33:21.788Z,18.60
2018-10-09T17:37:27.417Z,18.53
2018-10-09T17:41:32.456Z,18.47
2018-10-09T17:45:37.498Z,18.39
2018-10-09T17:49:42.543Z,18.36
2018-10-09T17:53:47.922Z,18.28
2018-10-09T17:57:52.913Z,18.27
2018-10-09T18:01:58.153Z,18.18
2018-10-09T18:06:03.322Z,18.10
2018-10-09T18:10:08.426Z,18.10
2018-10-09T18:14:13.475Z,18.03
2018-10-09T18:18:18.505Z,17.99
2018-10-09T18:22:23.593Z,17.91
2018-10-09T18:26:29.072Z,17.85
2018-10-09T18:30:34.977Z,17.79
2018-10-09T18:34:41.479Z,17.82
2018-10-09T18:38:46.989Z,17.63
2018-10-09T18:42:53.102Z,17.63
2018-10-09T18:46:59.205Z,17.74
2018-10-09T18:51:04.244Z,17.61
2018-10-09T18:55:11.961Z,17.53
2018-10-09T18:59:17.034Z,17.43
2018-10-09T19:03:22.049Z,17.38
2018-10-09T19:07:27.077Z,17.32
2018-10-09T19:11:32.119Z,17.26
2018-10-09T19:15:37.158Z,17.10
2018-10-09T19:19:42.245Z,17.00
2018-10-09T19:23:49.350Z,16.91
2018-10-09T19:27:56.342Z,16.85
2018-10-09T19:32:03.942Z,16.80
2018-10-09T19:36:10.728Z,16.70
2018-10-09T19:40:17.297Z,16.65
2018-10-09T19:44:22.441Z,16.55
2018-10-09T19:48:27.595Z,16.45
2018-10-09T19:52:32.695Z,16.39
2018-10-09T19:56:38.144Z,16.36
2018-10-09T20:00:43.337Z,16.27
2018-10-09T20:04:48.342Z,16.23
2018-10-09T20:08:53.543Z,16.13
2018-10-09T20:12:58.612Z,16.02
2018-10-09T20:17:04.266Z,16.01
2018-10-09T20:21:10.729Z,16.00
2018-10-09T20:25:15.928Z,15.91
2018-10-09T20:29:21.105Z,15.77
2018-10-09T20:33:26.357Z,15.95
2018-10-09T20:37:31.359Z,15.68
2018-10-09T20:41:36.449Z,15.68
2018-10-09T20:45:41.502Z,15.63
2018-10-09T20:49:46.655Z,15.66
2018-10-09T20:53:51.931Z,15.61
2018-10-09T20:57:56.969Z,15.58
2018-10-09T21:02:02.173Z,15.46
2018-10-09T21:06:09.016Z,15.44
2018-10-09T21:10:15.840Z,15.39
2018-10-09T21:14:22.453Z,15.37
2018-10-09T21:18:29.082Z,15.28
2018-10-09T21:22:35.105Z,15.25
2018-10-09T21:26:40.196Z,15.23
2018-10-09T21:30:45.217Z,15.16
2018-10-09T21:34:55.725Z,15.08
2018-10-09T21:39:00.790Z,15.02
2018-10-09T21:43:05.845Z,14.99
2018-10-09T21:47:10.889Z,14.94
2018-10-09T21:51:15.913Z,14.89
2018-10-09T21:55:20.977Z,14.80
2018-10-09T21:59:25.989Z,14.71
2018-10-09T22:03:31.029Z,14.67
2018-10-09T22:07:36.086Z,14.55
2018-10-09T22:11:41.241Z,14.60
2018-10-09T22:15:46.293Z,14.48
2018-10-09T22:19:51.319Z,14.44
2018-10-09T22:23:57.273Z,14.38
2018-10-09T22:28:02.336Z,14.34
2018-10-09T22:32:07.394Z,14.22
2018-10-09T22:36:12.653Z,14.25
2018-10-09T22:40:17.766Z,14.13
2018-10-09T22:44:22.838Z,14.14
2018-10-09T22:48:27.856Z,14.13
2018-10-09T22:52:34.981Z,14.06
2018-10-09T22:56:40.046Z,14.09
2018-10-09T23:00:45.067Z,14.13
2018-10-09T23:04:50.052Z,14.10
2018-10-09T23:08:55.069Z,14.08
2018-10-09T23:13:00.078Z,14.10
2018-10-09T23:17:05.122Z,14.06
2018-10-09T23:21:11.800Z,14.05
2018-10-09T23:25:16.873Z,14.05
2018-10-09T23:29:21.866Z,14.06
2018-10-09T23:33:26.921Z,14.00
2018-10-09T23:37:31.939Z,14.02
2018-10-09T23:41:36.945Z,13.95
2018-10-09T23:45:42.233Z,13.90
2018-10-09T23:49:47.261Z,13.87
2018-10-09T23:53:52.338Z,13.84
2018-10-09T23:57:57.360Z,13.78
